sensor_id;sensor_type;location;lat;lon;timestamp;temperature;humidity
15596;DHT22;7898;48.658;9.068;2022-11-20T00:01:27;4.80;99.90
15596;DHT22;7898;48.658;9.068;2022-11-20T00:03:57;4.80;99.90
15596;DHT22;7898;48.658;9.068;2022-11-20T00:06:26;4.70;99.90
15596;DHT22;7898;48.658;9.068;2022-11-20T00:08:55;4.70;99.90
15596;DHT22;7898;48.658;9.068;2022-11-20T00:11:24;4.70;99.90
15596;DHT22;7898;48.658;9.068;2022-11-20T00:13:54;4.70;99.90
15596;DHT22;7898;48.658;9.068;2022-11-20T00:16:24;4.70;99.90
15596;DHT22;7898;48.658;9.068;2022-11-20T00:18:54;4.70;99.90
15596;DHT22;7898;48.658;9.068;2022-11-20T00:21:25;4.70;99.90
15596;DHT22;7898;48.658;9.068;2022-11-20T00:23:54;4.70;99.90
15596;DHT22;7898;48.658;9.068;2022-11-20T00:26:25;4.70;99.90
15596;DHT22;7898;48.658;9.068;2022-11-20T00:28:54;4.70;99.90
15596;DHT22;7898;48.658;9.068;2022-11-20T00:31:22;4.70;99.90
15596;DHT22;7898;48.658;9.068;2022-11-20T00:33:55;4.70;99.90
15596;DHT22;7898;48.658;9.068;2022-11-20T00:36:26;4.70;99.90
15596;DHT22;7898;48.658;9.068;2022-11-20T00:39:02;4.70;99.90
15596;DHT22;7898;48.658;9.068;2022-11-20T00:41:33;4.90;99.90
15596;DHT22;7898;48.658;9.068;2022-11-20T00:44:01;4.70;99.90
15596;DHT22;7898;48.658;9.068;2022-11-20T00:46:28;4.70;99.90
15596;DHT22;7898;48.658;9.068;2022-11-20T00:48:55;4.70;99.90
15596;DHT22;7898;48.658;9.068;2022-11-20T00:51:25;4.70;99.90
15596;DHT22;7898;48.658;9.068;2022-11-20T00:53:55;4.60;99.90
15596;DHT22;7898;48.658;9.068;2022-11-20T00:56:29;4.60;99.90
15596;DHT22;7898;48.658;9.068;2022-11-20T00:58:59;4.60;99.90
15596;DHT22;7898;48.658;9.068;2022-11-20T01:01:27;4.60;99.90
15596;DHT22;7898;48.658;9.068;2022-11-20T01:03:56;4.60;99.90
15596;DHT22;7898;48.658;9.068;2022-11-20T01:06:28;4.60;99.90
15596;DHT22;7898;48.658;9.068;2022-11-20T01:09:00;4.60;99.90
15596;DHT22;7898;48.658;9.068;2022-11-20T01:11:31;4.50;99.90
15596;DHT22;7898;48.658;9.068;2022-11-20T01:14:01;4.50;99.90
15596;DHT22;7898;48.658;9.068;2022-11-20T01:16:30;4.50;99.90
15596;DHT22;7898;48.658;9.068;2022-11-20T01:19:00;4.40;99.90
15596;DHT22;7898;48.658;9.068;2022-11-20T01:21:32;4.40;99.90
15596;DHT22;7898;48.658;9.068;2022-11-20T01:24:04;4.40;99.90
15596;DHT22;7898;48.658;9.068;2022-11-20T01:26:36;4.30;99.90
15596;DHT22;7898;48.658;9.068;2022-11-20T01:29:04;4.30;99.90
15596;DHT22;7898;48.658;9.068;2022-11-20T01:31:33;5.00;99.90
15596;DHT22;7898;48.658;9.068;2022-11-20T01:34:06;4.20;99.90
15596;DHT22;7898;48.658;9.068;2022-11-20T01:36:36;4.20;99.90
15596;DHT22;7898;48.658;9.068;2022-11-20T01:39:05;4.20;99.90
15596;DHT22;7898;48.658;9.068;2022-11-20T01:41:34;4.10;99.90
15596;DHT22;7898;48.658;9.068;2022-11-20T01:44:20;4.10;99.90
15596;DHT22;7898;48.658;9.068;2022-11-20T01:46:54;4.10;99.90
15596;DHT22;7898;48.658;9.068;2022-11-20T01:49:33;3.80;99.90
15596;DHT22;7898;48.658;9.068;2022-11-20T01:52:05;3.80;99.90
15596;DHT22;7898;48.658;9.068;2022-11-20T01:54:38;3.70;99.90
15596;DHT22;7898;48.658;9.068;2022-11-20T01:57:12;3.60;99.90
15596;DHT22;7898;48.658;9.068;2022-11-20T01:59:42;3.50;99.90
15596;DHT22;7898;48.658;9.068;2022-11-20T02:02:11;3.40;99.90
15596;DHT22;7898;48.658;9.068;2022-11-20T02:04:40;3.40;99.90
15596;DHT22;7898;48.658;9.068;2022-11-20T02:07:16;3.30;99.90
15596;DHT22;7898;48.658;9.068;2022-11-20T02:09:43;3.20;99.90
15596;DHT22;7898;48.658;9.068;2022-11-20T02:12:12;3.20;99.90
15596;DHT22;7898;48.658;9.068;2022-11-20T02:14:53;3.30;99.90
15596;DHT22;7898;48.658;9.068;2022-11-20T02:17:20;3.30;99.90
15596;DHT22;7898;48.658;9.068;2022-11-20T02:19:57;3.30;99.90
15596;DHT22;7898;48.658;9.068;2022-11-20T02:22:30;3.20;99.90
15596;DHT22;7898;48.658;9.068;2022-11-20T02:25:00;3.00;99.90
15596;DHT22;7898;48.658;9.068;2022-11-20T02:27:34;2.90;99.90
15596;DHT22;7898;48.658;9.068;2022-11-20T02:30:04;2.80;99.90
15596;DHT22;7898;48.658;9.068;2022-11-20T02:32:37;2.70;99.90
15596;DHT22;7898;48.658;9.068;2022-11-20T02:35:40;2.80;99.90
15596;DHT22;7898;48.658;9.068;2022-11-20T02:38:09;2.70;99.90
15596;DHT22;7898;48.658;9.068;2022-11-20T02:40:37;2.80;99.90
15596;DHT22;7898;48.658;9.068;2022-11-20T02:43:09;2.80;99.90
15596;DHT22;7898;48.658;9.068;2022-11-20T02:45:38;3.00;99.90
15596;DHT22;7898;48.658;9.068;2022-11-20T02:48:20;3.00;99.90
15596;DHT22;7898;48.658;9.068;2022-11-20T02:50:56;3.20;99.90
15596;DHT22;7898;48.658;9.068;2022-11-20T02:53:27;3.30;99.90
15596;DHT22;7898;48.658;9.068;2022-11-20T02:56:06;3.40;99.90
15596;DHT22;7898;48.658;9.068;2022-11-20T02:58:47;3.50;99.90
15596;DHT22;7898;48.658;9.068;2022-11-20T03:01:18;3.60;99.90
15596;DHT22;7898;48.658;9.068;2022-11-20T03:03:45;3.60;99.90
15596;DHT22;7898;48.658;9.068;2022-11-20T03:06:14;3.70;99.90
15596;DHT22;7898;48.658;9.068;2022-11-20T03:08:42;3.70;99.90
15596;DHT22;7898;48.658;9.068;2022-11-20T03:11:10;3.70;99.90
15596;DHT22;7898;48.658;9.068;2022-11-20T03:13:37;3.80;99.90
15596;DHT22;7898;48.658;9.068;2022-11-20T03:16:12;3.80;99.90
15596;DHT22;7898;48.658;9.068;2022-11-20T03:18:41;3.80;99.90
15596;DHT22;7898;48.658;9.068;2022-11-20T03:21:13;3.90;99.90
15596;DHT22;7898;48.658;9.068;2022-11-20T03:23:41;3.90;99.90
15596;DHT22;7898;48.658;9.068;2022-11-20T03:26:15;3.90;99.90
15596;DHT22;7898;48.658;9.068;2022-11-20T03:28:54;4.00;99.90
15596;DHT22;7898;48.658;9.068;2022-11-20T03:31:25;4.00;99.90
15596;DHT22;7898;48.658;9.068;2022-11-20T03:33:54;4.00;99.90
15596;DHT22;7898;48.658;9.068;2022-11-20T03:36:30;4.00;99.90
15596;DHT22;7898;48.658;9.068;2022-11-20T03:38:57;4.00;99.90
15596;DHT22;7898;48.658;9.068;2022-11-20T03:41:35;4.00;99.90
15596;DHT22;7898;48.658;9.068;2022-11-20T03:44:04;4.00;99.90
15596;DHT22;7898;48.658;9.068;2022-11-20T03:46:31;4.00;99.90
15596;DHT22;7898;48.658;9.068;2022-11-20T03:48:59;4.00;99.90
15596;DHT22;7898;48.658;9.068;2022-11-20T03:51:29;4.00;99.90
15596;DHT22;7898;48.658;9.068;2022-11-20T03:53:58;4.00;99.90
15596;DHT22;7898;48.658;9.068;2022-11-20T03:56:26;3.90;99.90
15596;DHT22;7898;48.658;9.068;2022-11-20T03:58:56;3.90;99.90
15596;DHT22;7898;48.658;9.068;2022-11-20T04:01:29;3.80;99.90
15596;DHT22;7898;48.658;9.068;2022-11-20T04:04:01;3.70;99.90
15596;DHT22;7898;48.658;9.068;2022-11-20T04:06:30;3.60;99.90
15596;DHT22;7898;48.658;9.068;2022-11-20T04:08:58;3.60;99.90
15596;DHT22;7898;48.658;9.068;2022-11-20T04:11:27;3.50;99.90
15596;DHT22;7898;48.658;9.068;2022-11-20T04:13:57;3.60;99.90
15596;DHT22;7898;48.658;9.068;2022-11-20T04:16:27;3.60;99.90
15596;DHT22;7898;48.658;9.068;2022-11-20T04:19:04;3.60;99.90
15596;DHT22;7898;48.658;9.068;2022-11-20T04:21:31;3.60;99.90
15596;DHT22;7898;48.658;9.068;2022-11-20T04:23:59;3.70;99.90
15596;DHT22;7898;48.658;9.068;2022-11-20T04:26:27;3.70;99.90
15596;DHT22;7898;48.658;9.068;2022-11-20T04:28:55;3.70;99.90
15596;DHT22;7898;48.658;9.068;2022-11-20T04:31:34;3.80;99.90
15596;DHT22;7898;48.658;9.068;2022-11-20T04:34:02;3.80;99.90
15596;DHT22;7898;48.658;9.068;2022-11-20T04:36:34;3.90;99.90
15596;DHT22;7898;48.658;9.068;2022-11-20T04:39:02;3.90;99.90
15596;DHT22;7898;48.658;9.068;2022-11-20T04:41:31;3.90;99.90
15596;DHT22;7898;48.658;9.068;2022-11-20T04:44:04;4.00;99.90
15596;DHT22;7898;48.658;9.068;2022-11-20T04:46:45;4.00;99.90
15596;DHT22;7898;48.658;9.068;2022-11-20T04:49:13;4.10;99.90
15596;DHT22;7898;48.658;9.068;2022-11-20T04:51:41;4.20;99.90
15596;DHT22;7898;48.658;9.068;2022-11-20T04:54:09;4.20;99.90
15596;DHT22;7898;48.658;9.068;2022-11-20T04:56:39;4.20;99.90
15596;DHT22;7898;48.658;9.068;2022-11-20T04:59:09;4.30;99.90
15596;DHT22;7898;48.658;9.068;2022-11-20T05:01:36;4.30;99.90
15596;DHT22;7898;48.658;9.068;2022-11-20T05:04:03;4.40;99.90
15596;DHT22;7898;48.658;9.068;2022-11-20T05:06:29;4.40;99.90
15596;DHT22;7898;48.658;9.068;2022-11-20T05:08:56;4.50;99.90
15596;DHT22;7898;48.658;9.068;2022-11-20T05:11:24;4.50;99.90
15596;DHT22;7898;48.658;9.068;2022-11-20T05:13:55;4.50;99.90
15596;DHT22;7898;48.658;9.068;2022-11-20T05:16:26;4.60;99.90
15596;DHT22;7898;48.658;9.068;2022-11-20T05:18:53;4.60;99.90
15596;DHT22;7898;48.658;9.068;2022-11-20T05:21:30;4.60;99.90
15596;DHT22;7898;48.658;9.068;2022-11-20T05:24:00;4.60;99.90
15596;DHT22;7898;48.658;9.068;2022-11-20T05:26:26;4.60;99.90
15596;DHT22;7898;48.658;9.068;2022-11-20T05:28:56;4.60;99.90
15596;DHT22;7898;48.658;9.068;2022-11-20T05:31:24;4.70;99.90
15596;DHT22;7898;48.658;9.068;2022-11-20T05:33:56;4.70;99.90
15596;DHT22;7898;48.658;9.068;2022-11-20T05:36:25;4.70;99.90
15596;DHT22;7898;48.658;9.068;2022-11-20T05:38:52;4.70;99.90
15596;DHT22;7898;48.658;9.068;2022-11-20T05:41:20;4.70;99.90
15596;DHT22;7898;48.658;9.068;2022-11-20T05:43:52;4.70;99.90
15596;DHT22;7898;48.658;9.068;2022-11-20T05:46:20;4.60;99.90
15596;DHT22;7898;48.658;9.068;2022-11-20T05:48:47;4.60;99.90
15596;DHT22;7898;48.658;9.068;2022-11-20T05:51:17;4.60;99.90
15596;DHT22;7898;48.658;9.068;2022-11-20T05:53:48;4.60;99.90
15596;DHT22;7898;48.658;9.068;2022-11-20T05:56:16;4.60;99.90
15596;DHT22;7898;48.658;9.068;2022-11-20T05:58:43;4.60;99.90
15596;DHT22;7898;48.658;9.068;2022-11-20T06:01:19;4.60;99.90
15596;DHT22;7898;48.658;9.068;2022-11-20T06:03:46;4.60;99.90
15596;DHT22;7898;48.658;9.068;2022-11-20T06:06:17;4.60;99.90
15596;DHT22;7898;48.658;9.068;2022-11-20T06:08:47;4.60;99.90
15596;DHT22;7898;48.658;9.068;2022-11-20T06:11:17;4.60;99.90
15596;DHT22;7898;48.658;9.068;2022-11-20T06:13:45;4.60;99.90
15596;DHT22;7898;48.658;9.068;2022-11-20T06:16:14;4.60;99.90
15596;DHT22;7898;48.658;9.068;2022-11-20T06:18:41;4.60;99.90
15596;DHT22;7898;48.658;9.068;2022-11-20T06:21:14;4.60;99.90
15596;DHT22;7898;48.658;9.068;2022-11-20T06:23:45;4.60;99.90
15596;DHT22;7898;48.658;9.068;2022-11-20T06:26:20;4.60;99.90
15596;DHT22;7898;48.658;9.068;2022-11-20T06:28:57;4.60;99.90
15596;DHT22;7898;48.658;9.068;2022-11-20T06:31:35;4.60;99.90
15596;DHT22;7898;48.658;9.068;2022-11-20T06:34:03;4.60;99.90
15596;DHT22;7898;48.658;9.068;2022-11-20T06:36:36;4.70;99.90
15596;DHT22;7898;48.658;9.068;2022-11-20T06:39:11;4.60;99.90
15596;DHT22;7898;48.658;9.068;2022-11-20T06:41:44;4.60;99.90
15596;DHT22;7898;48.658;9.068;2022-11-20T06:44:15;4.60;99.90
15596;DHT22;7898;48.658;9.068;2022-11-20T06:47:04;4.60;99.90
15596;DHT22;7898;48.658;9.068;2022-11-20T06:49:32;4.50;99.90
15596;DHT22;7898;48.658;9.068;2022-11-20T06:52:00;4.50;99.90
15596;DHT22;7898;48.658;9.068;2022-11-20T06:54:57;4.50;99.90
15596;DHT22;7898;48.658;9.068;2022-11-20T06:57:25;4.50;99.90
15596;DHT22;7898;48.658;9.068;2022-11-20T06:59:57;4.50;99.90
15596;DHT22;7898;48.658;9.068;2022-11-20T07:02:28;4.50;99.90
15596;DHT22;7898;48.658;9.068;2022-11-20T07:04:56;4.50;99.90
15596;DHT22;7898;48.658;9.068;2022-11-20T07:07:23;4.50;99.90
15596;DHT22;7898;48.658;9.068;2022-11-20T07:09:57;4.50;99.90
15596;DHT22;7898;48.658;9.068;2022-11-20T07:12:28;4.60;99.90
15596;DHT22;7898;48.658;9.068;2022-11-20T07:17:36;4.60;99.90
15596;DHT22;7898;48.658;9.068;2022-11-20T07:22:42;4.70;99.90
15596;DHT22;7898;48.658;9.068;2022-11-20T07:25:19;4.80;99.90
15596;DHT22;7898;48.658;9.068;2022-11-20T07:27:59;4.80;99.90
15596;DHT22;7898;48.658;9.068;2022-11-20T07:30:34;4.80;99.90
15596;DHT22;7898;48.658;9.068;2022-11-20T07:33:06;4.90;99.90
15596;DHT22;7898;48.658;9.068;2022-11-20T07:35:39;4.90;99.90
15596;DHT22;7898;48.658;9.068;2022-11-20T07:38:21;4.90;99.90
15596;DHT22;7898;48.658;9.068;2022-11-20T07:40:54;5.00;99.90
15596;DHT22;7898;48.658;9.068;2022-11-20T07:43:31;5.20;99.90
15596;DHT22;7898;48.658;9.068;2022-11-20T07:45:59;5.20;99.90
15596;DHT22;7898;48.658;9.068;2022-11-20T07:48:29;5.40;99.90
15596;DHT22;7898;48.658;9.068;2022-11-20T07:51:02;5.50;99.90
15596;DHT22;7898;48.658;9.068;2022-11-20T07:53:33;5.80;99.90
15596;DHT22;7898;48.658;9.068;2022-11-20T07:56:02;6.10;99.90
15596;DHT22;7898;48.658;9.068;2022-11-20T07:58:36;6.20;99.90
15596;DHT22;7898;48.658;9.068;2022-11-20T08:01:08;6.10;99.90
15596;DHT22;7898;48.658;9.068;2022-11-20T08:03:38;6.10;99.90
15596;DHT22;7898;48.658;9.068;2022-11-20T08:06:07;6.10;99.90
15596;DHT22;7898;48.658;9.068;2022-11-20T08:08:37;5.90;99.90
15596;DHT22;7898;48.658;9.068;2022-11-20T08:11:09;5.80;99.90
15596;DHT22;7898;48.658;9.068;2022-11-20T08:13:56;5.70;99.90
15596;DHT22;7898;48.658;9.068;2022-11-20T08:16:48;5.70;99.90
15596;DHT22;7898;48.658;9.068;2022-11-20T08:19:18;5.70;99.90
15596;DHT22;7898;48.658;9.068;2022-11-20T08:21:49;5.70;99.90
15596;DHT22;7898;48.658;9.068;2022-11-20T08:24:16;5.70;99.90
15596;DHT22;7898;48.658;9.068;2022-11-20T08:27:08;5.60;99.90
15596;DHT22;7898;48.658;9.068;2022-11-20T08:29:48;5.60;99.90
15596;DHT22;7898;48.658;9.068;2022-11-20T08:32:29;5.60;99.90
15596;DHT22;7898;48.658;9.068;2022-11-20T08:35:00;5.60;99.90
15596;DHT22;7898;48.658;9.068;2022-11-20T08:37:27;5.70;99.90
15596;DHT22;7898;48.658;9.068;2022-11-20T08:39:55;5.80;99.90
15596;DHT22;7898;48.658;9.068;2022-11-20T08:42:26;5.80;99.90
15596;DHT22;7898;48.658;9.068;2022-11-20T08:44:53;5.70;99.90
15596;DHT22;7898;48.658;9.068;2022-11-20T08:47:21;5.80;99.90
15596;DHT22;7898;48.658;9.068;2022-11-20T08:49:53;5.90;99.90
15596;DHT22;7898;48.658;9.068;2022-11-20T08:52:26;5.90;99.90
15596;DHT22;7898;48.658;9.068;2022-11-20T08:54:55;5.90;99.90
15596;DHT22;7898;48.658;9.068;2022-11-20T08:57:32;6.00;99.90
15596;DHT22;7898;48.658;9.068;2022-11-20T09:00:02;6.10;99.90
15596;DHT22;7898;48.658;9.068;2022-11-20T09:02:32;6.10;99.90
15596;DHT22;7898;48.658;9.068;2022-11-20T09:05:02;6.20;99.90
15596;DHT22;7898;48.658;9.068;2022-11-20T09:07:31;6.30;99.90
15596;DHT22;7898;48.658;9.068;2022-11-20T09:12:50;6.30;99.90
15596;DHT22;7898;48.658;9.068;2022-11-20T09:15:18;6.40;99.90
15596;DHT22;7898;48.658;9.068;2022-11-20T09:17:52;5.60;99.90
15596;DHT22;7898;48.658;9.068;2022-11-20T09:20:21;6.30;99.90
15596;DHT22;7898;48.658;9.068;2022-11-20T09:22:52;6.30;99.90
15596;DHT22;7898;48.658;9.068;2022-11-20T09:25:22;6.30;99.90
15596;DHT22;7898;48.658;9.068;2022-11-20T09:28:02;6.30;99.90
15596;DHT22;7898;48.658;9.068;2022-11-20T09:30:31;6.30;99.90
15596;DHT22;7898;48.658;9.068;2022-11-20T09:33:11;6.30;99.90
15596;DHT22;7898;48.658;9.068;2022-11-20T09:35:43;6.30;99.90
15596;DHT22;7898;48.658;9.068;2022-11-20T09:38:12;6.20;99.90
15596;DHT22;7898;48.658;9.068;2022-11-20T09:40:48;6.20;99.90
15596;DHT22;7898;48.658;9.068;2022-11-20T09:43:24;6.30;99.90
15596;DHT22;7898;48.658;9.068;2022-11-20T09:46:09;6.20;99.90
15596;DHT22;7898;48.658;9.068;2022-11-20T09:49:02;6.20;99.90
15596;DHT22;7898;48.658;9.068;2022-11-20T09:51:45;6.20;99.90
15596;DHT22;7898;48.658;9.068;2022-11-20T09:54:19;6.20;99.90
15596;DHT22;7898;48.658;9.068;2022-11-20T09:56:55;6.20;99.90
15596;DHT22;7898;48.658;9.068;2022-11-20T09:59:36;6.20;99.90
15596;DHT22;7898;48.658;9.068;2022-11-20T10:02:17;6.20;99.90
15596;DHT22;7898;48.658;9.068;2022-11-20T10:04:55;6.30;99.90
15596;DHT22;7898;48.658;9.068;2022-11-20T10:07:34;6.30;99.90
15596;DHT22;7898;48.658;9.068;2022-11-20T10:10:18;6.30;99.90
15596;DHT22;7898;48.658;9.068;2022-11-20T10:13:15;6.30;99.90
15596;DHT22;7898;48.658;9.068;2022-11-20T10:16:13;6.20;99.90
15596;DHT22;7898;48.658;9.068;2022-11-20T10:19:03;6.20;99.90
15596;DHT22;7898;48.658;9.068;2022-11-20T10:21:51;6.30;99.90
15596;DHT22;7898;48.658;9.068;2022-11-20T10:25:00;6.30;99.90
15596;DHT22;7898;48.658;9.068;2022-11-20T10:27:48;6.30;99.90
15596;DHT22;7898;48.658;9.068;2022-11-20T10:30:24;6.30;99.90
15596;DHT22;7898;48.658;9.068;2022-11-20T10:33:13;6.30;99.90
15596;DHT22;7898;48.658;9.068;2022-11-20T10:35:48;6.30;99.90
15596;DHT22;7898;48.658;9.068;2022-11-20T10:38:29;6.30;99.90
15596;DHT22;7898;48.658;9.068;2022-11-20T10:41:04;6.40;99.90
15596;DHT22;7898;48.658;9.068;2022-11-20T10:43:49;6.40;99.90
15596;DHT22;7898;48.658;9.068;2022-11-20T10:46:20;6.40;99.90
15596;DHT22;7898;48.658;9.068;2022-11-20T10:48:55;6.40;99.90
15596;DHT22;7898;48.658;9.068;2022-11-20T10:51:33;6.40;99.90
15596;DHT22;7898;48.658;9.068;2022-11-20T10:54:22;6.40;99.90
15596;DHT22;7898;48.658;9.068;2022-11-20T10:56:56;6.50;99.90
15596;DHT22;7898;48.658;9.068;2022-11-20T11:02:33;6.60;99.90
15596;DHT22;7898;48.658;9.068;2022-11-20T11:05:12;6.70;99.90
15596;DHT22;7898;48.658;9.068;2022-11-20T11:07:47;6.90;99.90
15596;DHT22;7898;48.658;9.068;2022-11-20T11:10:18;7.10;99.90
15596;DHT22;7898;48.658;9.068;2022-11-20T11:12:49;7.30;99.90
15596;DHT22;7898;48.658;9.068;2022-11-20T11:15:27;7.50;99.90
15596;DHT22;7898;48.658;9.068;2022-11-20T11:17:57;7.50;99.90
15596;DHT22;7898;48.658;9.068;2022-11-20T11:20:26;7.50;99.90
15596;DHT22;7898;48.658;9.068;2022-11-20T11:22:58;7.60;99.90
15596;DHT22;7898;48.658;9.068;2022-11-20T11:25:38;7.60;99.90
15596;DHT22;7898;48.658;9.068;2022-11-20T11:28:19;7.70;99.90
15596;DHT22;7898;48.658;9.068;2022-11-20T11:31:00;7.60;99.90
15596;DHT22;7898;48.658;9.068;2022-11-20T11:33:37;7.70;99.90
15596;DHT22;7898;48.658;9.068;2022-11-20T11:36:22;7.60;99.90
15596;DHT22;7898;48.658;9.068;2022-11-20T11:38:53;7.70;99.90
15596;DHT22;7898;48.658;9.068;2022-11-20T11:41:27;7.80;99.90
15596;DHT22;7898;48.658;9.068;2022-11-20T11:44:15;8.00;99.90
15596;DHT22;7898;48.658;9.068;2022-11-20T11:47:05;8.50;99.90
15596;DHT22;7898;48.658;9.068;2022-11-20T11:49:46;8.70;99.90
15596;DHT22;7898;48.658;9.068;2022-11-20T11:52:21;8.70;99.90
15596;DHT22;7898;48.658;9.068;2022-11-20T11:54:53;8.70;99.90
15596;DHT22;7898;48.658;9.068;2022-11-20T11:57:37;8.80;99.90
15596;DHT22;7898;48.658;9.068;2022-11-20T12:00:21;9.10;99.90
15596;DHT22;7898;48.658;9.068;2022-11-20T12:03:06;9.20;99.90
15596;DHT22;7898;48.658;9.068;2022-11-20T12:05:41;9.40;99.90
15596;DHT22;7898;48.658;9.068;2022-11-20T12:08:23;9.60;99.90
15596;DHT22;7898;48.658;9.068;2022-11-20T12:11:11;9.60;99.90
15596;DHT22;7898;48.658;9.068;2022-11-20T12:13:52;9.80;99.90
15596;DHT22;7898;48.658;9.068;2022-11-20T12:16:22;10.00;99.90
15596;DHT22;7898;48.658;9.068;2022-11-20T12:18:58;9.60;99.90
15596;DHT22;7898;48.658;9.068;2022-11-20T12:21:32;9.30;99.90
15596;DHT22;7898;48.658;9.068;2022-11-20T12:24:32;9.10;99.90
15596;DHT22;7898;48.658;9.068;2022-11-20T12:27:11;9.00;99.90
15596;DHT22;7898;48.658;9.068;2022-11-20T12:29:51;9.00;99.90
15596;DHT22;7898;48.658;9.068;2022-11-20T12:35:57;8.80;99.90
15596;DHT22;7898;48.658;9.068;2022-11-20T12:38:48;8.60;99.90
15596;DHT22;7898;48.658;9.068;2022-11-20T12:41:29;8.50;99.90
15596;DHT22;7898;48.658;9.068;2022-11-20T12:44:36;8.50;99.90
15596;DHT22;7898;48.658;9.068;2022-11-20T12:47:39;8.50;99.90
15596;DHT22;7898;48.658;9.068;2022-11-20T12:50:17;8.80;99.90
15596;DHT22;7898;48.658;9.068;2022-11-20T12:52:51;9.10;99.90
15596;DHT22;7898;48.658;9.068;2022-11-20T12:55:28;9.30;99.90
15596;DHT22;7898;48.658;9.068;2022-11-20T12:58:10;9.80;99.90
15596;DHT22;7898;48.658;9.068;2022-11-20T13:00:47;10.00;99.90
15596;DHT22;7898;48.658;9.068;2022-11-20T13:03:31;9.60;99.90
15596;DHT22;7898;48.658;9.068;2022-11-20T13:06:10;9.70;99.90
15596;DHT22;7898;48.658;9.068;2022-11-20T13:08:48;9.30;99.90
15596;DHT22;7898;48.658;9.068;2022-11-20T13:11:25;9.00;99.90
15596;DHT22;7898;48.658;9.068;2022-11-20T13:14:24;8.80;99.90
15596;DHT22;7898;48.658;9.068;2022-11-20T13:17:14;8.50;99.90
15596;DHT22;7898;48.658;9.068;2022-11-20T13:19:53;8.50;99.90
15596;DHT22;7898;48.658;9.068;2022-11-20T13:22:29;8.50;99.90
15596;DHT22;7898;48.658;9.068;2022-11-20T13:24:58;9.10;99.90
15596;DHT22;7898;48.658;9.068;2022-11-20T13:27:53;9.60;99.90
15596;DHT22;7898;48.658;9.068;2022-11-20T13:30:29;9.90;99.90
15596;DHT22;7898;48.658;9.068;2022-11-20T13:33:07;10.10;99.90
15596;DHT22;7898;48.658;9.068;2022-11-20T13:35:58;9.90;99.90
15596;DHT22;7898;48.658;9.068;2022-11-20T13:38:41;9.60;99.90
15596;DHT22;7898;48.658;9.068;2022-11-20T13:41:26;9.40;99.90
15596;DHT22;7898;48.658;9.068;2022-11-20T13:44:10;9.30;99.90
15596;DHT22;7898;48.658;9.068;2022-11-20T13:46:43;9.10;99.90
15596;DHT22;7898;48.658;9.068;2022-11-20T13:49:32;8.80;99.90
15596;DHT22;7898;48.658;9.068;2022-11-20T13:52:28;8.50;99.90
15596;DHT22;7898;48.658;9.068;2022-11-20T13:55:14;8.30;99.90
15596;DHT22;7898;48.658;9.068;2022-11-20T14:00:48;8.30;99.90
15596;DHT22;7898;48.658;9.068;2022-11-20T14:03:24;8.20;99.90
15596;DHT22;7898;48.658;9.068;2022-11-20T14:05:55;8.10;99.90
15596;DHT22;7898;48.658;9.068;2022-11-20T14:08:37;8.00;99.90
15596;DHT22;7898;48.658;9.068;2022-11-20T14:11:18;7.80;99.90
15596;DHT22;7898;48.658;9.068;2022-11-20T14:13:56;7.60;99.90
15596;DHT22;7898;48.658;9.068;2022-11-20T14:16:28;7.50;99.90
15596;DHT22;7898;48.658;9.068;2022-11-20T14:19:25;7.50;99.90
15596;DHT22;7898;48.658;9.068;2022-11-20T14:22:07;7.40;99.90
15596;DHT22;7898;48.658;9.068;2022-11-20T14:24:42;7.30;99.90
15596;DHT22;7898;48.658;9.068;2022-11-20T14:27:15;7.40;99.90
15596;DHT22;7898;48.658;9.068;2022-11-20T14:29:44;7.40;99.90
15596;DHT22;7898;48.658;9.068;2022-11-20T14:32:18;7.40;99.90
15596;DHT22;7898;48.658;9.068;2022-11-20T14:34:53;7.40;99.90
15596;DHT22;7898;48.658;9.068;2022-11-20T14:37:24;7.30;99.90
15596;DHT22;7898;48.658;9.068;2022-11-20T14:39:54;7.40;99.90
15596;DHT22;7898;48.658;9.068;2022-11-20T14:42:27;7.30;99.90
15596;DHT22;7898;48.658;9.068;2022-11-20T14:44:58;7.20;99.90
15596;DHT22;7898;48.658;9.068;2022-11-20T14:47:35;7.20;99.90
15596;DHT22;7898;48.658;9.068;2022-11-20T14:50:18;7.10;99.90
15596;DHT22;7898;48.658;9.068;2022-11-20T14:52:57;7.10;99.90
15596;DHT22;7898;48.658;9.068;2022-11-20T14:55:34;7.00;99.90
15596;DHT22;7898;48.658;9.068;2022-11-20T14:58:05;7.50;99.90
15596;DHT22;7898;48.658;9.068;2022-11-20T15:00:33;6.90;99.90
15596;DHT22;7898;48.658;9.068;2022-11-20T15:03:13;6.90;99.90
15596;DHT22;7898;48.658;9.068;2022-11-20T15:05:49;6.90;99.90
15596;DHT22;7898;48.658;9.068;2022-11-20T15:08:17;6.80;99.90
15596;DHT22;7898;48.658;9.068;2022-11-20T15:10:50;6.80;99.90
15596;DHT22;7898;48.658;9.068;2022-11-20T15:13:44;6.70;99.90
15596;DHT22;7898;48.658;9.068;2022-11-20T15:16:18;6.70;99.90
15596;DHT22;7898;48.658;9.068;2022-11-20T15:18:54;6.60;99.90
15596;DHT22;7898;48.658;9.068;2022-11-20T15:21:25;6.50;99.90
15596;DHT22;7898;48.658;9.068;2022-11-20T15:23:54;6.50;99.90
15596;DHT22;7898;48.658;9.068;2022-11-20T15:26:27;6.50;99.90
15596;DHT22;7898;48.658;9.068;2022-11-20T15:28:59;6.30;99.90
15596;DHT22;7898;48.658;9.068;2022-11-20T15:31:30;6.20;99.90
15596;DHT22;7898;48.658;9.068;2022-11-20T15:34:05;6.10;99.90
15596;DHT22;7898;48.658;9.068;2022-11-20T15:36:43;6.10;99.90
15596;DHT22;7898;48.658;9.068;2022-11-20T15:39:15;5.90;99.90
15596;DHT22;7898;48.658;9.068;2022-11-20T15:41:49;5.90;99.90
15596;DHT22;7898;48.658;9.068;2022-11-20T15:44:18;5.80;99.90
15596;DHT22;7898;48.658;9.068;2022-11-20T15:46:57;5.90;99.90
15596;DHT22;7898;48.658;9.068;2022-11-20T15:49:28;5.90;99.90
15596;DHT22;7898;48.658;9.068;2022-11-20T15:51:56;5.90;99.90
15596;DHT22;7898;48.658;9.068;2022-11-20T15:54:25;5.90;99.90
15596;DHT22;7898;48.658;9.068;2022-11-20T15:56:56;5.90;99.90
15596;DHT22;7898;48.658;9.068;2022-11-20T15:59:23;5.90;99.90
15596;DHT22;7898;48.658;9.068;2022-11-20T16:01:52;5.80;99.90
15596;DHT22;7898;48.658;9.068;2022-11-20T16:04:25;5.70;99.90
15596;DHT22;7898;48.658;9.068;2022-11-20T16:06:59;5.70;99.90
15596;DHT22;7898;48.658;9.068;2022-11-20T16:09:44;5.70;99.90
15596;DHT22;7898;48.658;9.068;2022-11-20T16:12:11;5.70;99.90
15596;DHT22;7898;48.658;9.068;2022-11-20T16:15:02;5.80;99.90
15596;DHT22;7898;48.658;9.068;2022-11-20T16:17:51;5.80;99.90
15596;DHT22;7898;48.658;9.068;2022-11-20T16:20:20;5.80;99.90
15596;DHT22;7898;48.658;9.068;2022-11-20T16:22:56;5.90;99.90
15596;DHT22;7898;48.658;9.068;2022-11-20T16:25:32;5.90;99.90
15596;DHT22;7898;48.658;9.068;2022-11-20T16:28:03;5.90;99.90
15596;DHT22;7898;48.658;9.068;2022-11-20T16:30:35;5.90;99.90
15596;DHT22;7898;48.658;9.068;2022-11-20T16:33:04;5.90;99.90
15596;DHT22;7898;48.658;9.068;2022-11-20T16:35:36;5.90;99.90
15596;DHT22;7898;48.658;9.068;2022-11-20T16:38:12;5.90;99.90
15596;DHT22;7898;48.658;9.068;2022-11-20T16:40:46;5.90;99.90
15596;DHT22;7898;48.658;9.068;2022-11-20T16:43:30;5.90;99.90
15596;DHT22;7898;48.658;9.068;2022-11-20T16:46:03;5.80;99.90
15596;DHT22;7898;48.658;9.068;2022-11-20T16:48:30;5.90;99.90
15596;DHT22;7898;48.658;9.068;2022-11-20T16:51:03;5.90;99.90
15596;DHT22;7898;48.658;9.068;2022-11-20T16:53:35;5.90;99.90
15596;DHT22;7898;48.658;9.068;2022-11-20T16:56:11;6.00;99.90
15596;DHT22;7898;48.658;9.068;2022-11-20T16:58:42;6.00;99.90
15596;DHT22;7898;48.658;9.068;2022-11-20T17:01:11;6.00;99.90
15596;DHT22;7898;48.658;9.068;2022-11-20T17:03:45;6.00;99.90
15596;DHT22;7898;48.658;9.068;2022-11-20T17:06:17;6.00;99.90